Time;durP1;ratioP1;P1;durP2;ratioP2;P2;SDS_P1;SDS_P2;PMS_P1;PMS_P2;Temp;Humidity;BMP_temperature;BMP_pressure;BME280_temperature;BME280_humidity;BME280_pressure;Samples;Min_cycle;Max_cycle;Signal;HPM_P1;HPM_P2
2022/11/08 00:01:31;;;;;;;;;;;6.10;99.90;;;;;;1851726;78;20330;-72
2022/11/08 00:03:59;;;;;;;;;;;6.10;99.90;;;;;;1851453;78;20126;-72
2022/11/08 00:14:40;;;;;;;;;;;6.00;99.90;;;;;;1851582;78;20126;-73
2022/11/08 00:17:06;;;;;;;;;;;6.00;99.90;;;;;;1851536;78;20325;-72
2022/11/08 00:19:33;;;;;;;;;;;5.90;99.90;;;;;;1851464;78;20107;-72
2022/11/08 00:22:00;;;;;;;;;;;6.00;99.90;;;;;;1851407;78;20157;-71
2022/11/08 00:24:26;;;;;;;;;;;6.00;99.90;;;;;;1851573;78;20107;-71
2022/11/08 00:26:53;;;;;;;;;;;6.00;99.90;;;;;;1851441;78;20103;-71
2022/11/08 00:29:20;;;;;;;;;;;6.00;99.90;;;;;;1851600;78;20177;-72
2022/11/08 00:31:47;;;;;;;;;;;6.00;99.90;;;;;;1851472;78;20111;-72
2022/11/08 00:34:13;;;;;;;;;;;6.00;99.90;;;;;;1851579;78;20110;-73
2022/11/08 00:36:40;;;;;;;;;;;6.00;99.90;;;;;;1851849;78;20107;-72
2022/11/08 00:39:07;;;;;;;;;;;5.90;99.90;;;;;;1851764;78;20103;-73
2022/11/08 00:41:33;;;;;;;;;;;6.00;99.90;;;;;;1851753;77;20161;-73
2022/11/08 00:44:00;;;;;;;;;;;5.90;99.90;;;;;;1851626;78;20130;-73
2022/11/08 00:46:27;;;;;;;;;;;5.90;99.90;;;;;;1851917;78;20107;-70
2022/11/08 00:48:53;;;;;;;;;;;5.90;99.90;;;;;;1852174;78;20183;-71
2022/11/08 00:51:20;;;;;;;;;;;5.80;99.90;;;;;;1852270;78;20110;-71
2022/11/08 00:53:47;;;;;;;;;;;5.80;99.90;;;;;;1852266;78;20118;-71
2022/11/08 00:56:13;;;;;;;;;;;5.80;99.90;;;;;;1852094;78;20115;-70
2022/11/08 00:58:43;;;;;;;;;;;5.80;99.90;;;;;;1851670;78;20118;-71
2022/11/08 01:01:10;;;;;;;;;;;5.80;99.90;;;;;;1851657;78;20111;-72
2022/11/08 01:03:37;;;;;;;;;;;5.70;99.90;;;;;;1851568;78;20162;-70
2022/11/08 01:06:04;;;;;;;;;;;5.80;99.90;;;;;;1851628;78;20127;-71
2022/11/08 01:08:31;;;;;;;;;;;5.80;99.90;;;;;;1851594;77;20165;-70
2022/11/08 01:10:59;;;;;;;;;;;5.70;99.90;;;;;;1851595;78;20214;-71
2022/11/08 01:13:26;;;;;;;;;;;5.70;99.90;;;;;;1851527;77;20130;-72
2022/11/08 01:15:53;;;;;;;;;;;5.70;99.90;;;;;;1851613;78;20161;-71
2022/11/08 01:18:19;;;;;;;;;;;5.60;99.90;;;;;;1851653;78;20165;-71
2022/11/08 01:20:47;;;;;;;;;;;5.60;99.90;;;;;;1851650;78;20118;-70
2022/11/08 01:23:13;;;;;;;;;;;5.50;99.90;;;;;;1851698;78;20130;-70
2022/11/08 01:25:42;;;;;;;;;;;5.50;99.90;;;;;;1851622;78;20353;-70
2022/11/08 01:28:09;;;;;;;;;;;5.60;99.90;;;;;;1850335;76;20127;-71
2022/11/08 01:30:36;;;;;;;;;;;5.50;99.90;;;;;;1851572;78;20200;-71
2022/11/08 01:33:03;;;;;;;;;;;5.50;99.90;;;;;;1851680;78;20154;-71
2022/11/08 01:35:31;;;;;;;;;;;5.50;99.90;;;;;;1851692;78;20122;-71
2022/11/08 01:37:58;;;;;;;;;;;5.50;99.90;;;;;;1851625;78;20122;-71
2022/11/08 01:40:25;;;;;;;;;;;5.50;99.90;;;;;;1851579;76;20115;-72
2022/11/08 01:42:52;;;;;;;;;;;5.50;99.90;;;;;;1851636;77;20111;-71
2022/11/08 01:45:37;;;;;;;;;;;5.50;99.90;;;;;;1851672;77;20110;-72
2022/11/08 01:48:04;;;;;;;;;;;5.50;99.90;;;;;;1851774;78;20303;-71
2022/11/08 01:50:30;;;;;;;;;;;5.40;99.90;;;;;;1851590;78;20130;-70
2022/11/08 01:52:57;;;;;;;;;;;5.40;99.90;;;;;;1851713;76;20149;-71
2022/11/08 01:55:34;;;;;;;;;;;5.40;99.90;;;;;;1852426;77;20215;-71
2022/11/08 01:58:04;;;;;;;;;;;5.40;99.90;;;;;;1852530;76;20322;-71
2022/11/08 02:00:31;;;;;;;;;;;5.30;99.90;;;;;;1851584;78;20107;-72
2022/11/08 02:02:59;;;;;;;;;;;5.30;99.90;;;;;;1852655;76;20119;-71
2022/11/08 02:05:26;;;;;;;;;;;5.30;99.90;;;;;;1851502;78;20349;-72
2022/11/08 02:07:54;;;;;;;;;;;5.30;99.90;;;;;;1851639;78;20204;-72
2022/11/08 02:10:21;;;;;;;;;;;5.20;99.90;;;;;;1851444;78;20230;-70
2022/11/08 02:12:48;;;;;;;;;;;5.10;99.90;;;;;;1851476;78;20107;-70
2022/11/08 02:15:15;;;;;;;;;;;5.10;99.90;;;;;;1851427;78;20345;-71
2022/11/08 02:17:41;;;;;;;;;;;5.10;99.90;;;;;;1851613;78;20149;-72
2022/11/08 02:20:08;;;;;;;;;;;5.10;99.90;;;;;;1851523;78;20339;-70
2022/11/08 02:22:37;;;;;;;;;;;5.10;99.90;;;;;;1851384;78;20157;-71
2022/11/08 02:25:04;;;;;;;;;;;5.10;99.90;;;;;;1851484;77;20134;-71
2022/11/08 02:27:30;;;;;;;;;;;5.00;99.90;;;;;;1851645;78;20342;-70
2022/11/08 02:29:57;;;;;;;;;;;5.00;99.90;;;;;;1851480;78;20141;-72
2022/11/08 02:32:24;;;;;;;;;;;5.10;99.90;;;;;;1851589;77;20334;-71
2022/11/08 02:34:51;;;;;;;;;;;5.00;99.90;;;;;;1851439;78;20148;-71
2022/11/08 02:37:19;;;;;;;;;;;5.00;99.90;;;;;;1851559;78;20176;-71
2022/11/08 02:39:46;;;;;;;;;;;5.00;99.90;;;;;;1851411;78;20119;-73
2022/11/08 02:42:13;;;;;;;;;;;5.00;99.90;;;;;;1851544;78;20266;-72
2022/11/08 02:44:40;;;;;;;;;;;5.00;99.90;;;;;;1851554;78;20119;-72
2022/11/08 02:47:07;;;;;;;;;;;4.90;99.90;;;;;;1851676;78;20118;-71
2022/11/08 02:49:34;;;;;;;;;;;4.90;99.90;;;;;;1851498;78;20183;-72
2022/11/08 02:52:00;;;;;;;;;;;4.90;99.90;;;;;;1851538;78;20149;-71
2022/11/08 02:54:27;;;;;;;;;;;4.80;99.90;;;;;;1851569;78;20122;-71
2022/11/08 02:56:54;;;;;;;;;;;4.90;99.90;;;;;;1851439;77;20164;-71
2022/11/08 02:59:20;;;;;;;;;;;4.80;99.90;;;;;;1851528;78;20120;-71
2022/11/08 03:01:47;;;;;;;;;;;4.80;99.90;;;;;;1851498;78;20122;-71
2022/11/08 03:04:14;;;;;;;;;;;4.80;99.90;;;;;;1851533;78;20135;-71
2022/11/08 03:06:40;;;;;;;;;;;4.80;99.90;;;;;;1851588;78;20353;-72
2022/11/08 03:09:07;;;;;;;;;;;4.80;99.90;;;;;;1851473;78;20153;-72
2022/11/08 03:11:34;;;;;;;;;;;4.70;99.90;;;;;;1851547;78;20330;-72
2022/11/08 03:14:01;;;;;;;;;;;4.70;99.90;;;;;;1851558;78;20119;-72
2022/11/08 03:16:27;;;;;;;;;;;4.60;99.90;;;;;;1851591;78;20219;-72
2022/11/08 03:18:54;;;;;;;;;;;4.60;99.90;;;;;;1827730;78;20170;-72
2022/11/08 03:21:21;;;;;;;;;;;4.70;99.90;;;;;;1851539;78;20114;-72
2022/11/08 03:23:48;;;;;;;;;;;4.60;99.90;;;;;;1851496;78;20138;-72
2022/11/08 03:26:14;;;;;;;;;;;4.60;99.90;;;;;;1851405;78;20188;-72
2022/11/08 03:28:41;;;;;;;;;;;4.60;99.90;;;;;;1851466;78;20180;-72
2022/11/08 03:31:08;;;;;;;;;;;4.50;99.90;;;;;;1851478;78;20122;-72
2022/11/08 03:33:34;;;;;;;;;;;4.60;99.90;;;;;;1851533;78;20122;-72
2022/11/08 03:36:01;;;;;;;;;;;4.50;99.90;;;;;;1851449;78;20184;-73
2022/11/08 03:38:28;;;;;;;;;;;4.40;99.90;;;;;;1851524;78;20110;-73
2022/11/08 03:40:54;;;;;;;;;;;4.50;99.90;;;;;;1851456;78;20126;-72
2022/11/08 03:43:21;;;;;;;;;;;4.50;99.90;;;;;;1851466;78;20209;-72
2022/11/08 03:45:48;;;;;;;;;;;4.30;99.90;;;;;;1851385;78;20397;-72
2022/11/08 03:48:15;;;;;;;;;;;4.40;99.90;;;;;;1851605;78;20123;-72
2022/11/08 03:50:41;;;;;;;;;;;4.40;99.90;;;;;;1851542;78;20126;-72
2022/11/08 03:53:08;;;;;;;;;;;4.40;99.90;;;;;;1851400;78;20118;-71
2022/11/08 03:55:37;;;;;;;;;;;4.40;99.90;;;;;;1851732;78;20157;-72
2022/11/08 03:58:04;;;;;;;;;;;4.40;99.90;;;;;;1851886;78;20174;-71
2022/11/08 04:00:31;;;;;;;;;;;4.40;99.90;;;;;;1853697;78;20106;-72
2022/11/08 04:03:01;;;;;;;;;;;4.40;99.90;;;;;;1853874;78;20165;-70
2022/11/08 04:05:28;;;;;;;;;;;4.30;99.90;;;;;;1851799;78;20154;-71
2022/11/08 04:07:55;;;;;;;;;;;4.30;99.90;;;;;;1851693;77;20122;-72
2022/11/08 04:10:22;;;;;;;;;;;4.20;99.90;;;;;;1852584;77;20365;-72
2022/11/08 04:15:33;;;;;;;;;;;4.20;99.90;;;;;;1851626;78;20193;-71
2022/11/08 04:23:31;;;;;;;;;;;4.20;99.90;;;;;;1851588;77;20346;-70
2022/11/08 04:25:58;;;;;;;;;;;4.20;99.90;;;;;;1840639;77;20330;-71
2022/11/08 04:28:25;;;;;;;;;;;4.20;99.90;;;;;;1846119;77;20349;-73
2022/11/08 04:30:54;;;;;;;;;;;4.20;99.90;;;;;;1858524;77;20396;-72
2022/11/08 04:33:20;;;;;;;;;;;4.20;99.90;;;;;;1853274;77;20129;-73
2022/11/08 04:35:48;;;;;;;;;;;4.20;99.90;;;;;;1847712;76;20357;-73
2022/11/08 04:38:14;;;;;;;;;;;4.20;99.90;;;;;;1859366;75;20208;-71
2022/11/08 04:40:41;;;;;;;;;;;4.20;99.90;;;;;;1860158;76;20346;-71
2022/11/08 04:43:08;;;;;;;;;;;4.10;99.90;;;;;;1843764;77;20111;-72
2022/11/08 04:45:34;;;;;;;;;;;4.10;99.90;;;;;;1842272;76;20362;-71
2022/11/08 04:48:01;;;;;;;;;;;4.10;99.90;;;;;;1842383;78;20107;-72
2022/11/08 04:50:28;;;;;;;;;;;4.10;99.90;;;;;;1847263;76;20382;-72
2022/11/08 04:52:55;;;;;;;;;;;3.90;99.90;;;;;;1851580;78;20176;-72
2022/11/08 04:55:21;;;;;;;;;;;4.00;99.90;;;;;;1851427;78;20146;-71
2022/11/08 04:57:48;;;;;;;;;;;3.90;99.90;;;;;;1851424;77;20138;-71
2022/11/08 05:00:15;;;;;;;;;;;3.90;99.90;;;;;;1851488;78;20169;-71
2022/11/08 05:02:42;;;;;;;;;;;3.80;99.90;;;;;;1851459;78;20191;-73
2022/11/08 05:05:09;;;;;;;;;;;3.90;99.90;;;;;;1851652;78;20153;-71
2022/11/08 05:07:36;;;;;;;;;;;3.90;99.90;;;;;;1851488;78;20119;-71
2022/11/08 05:10:02;;;;;;;;;;;3.80;99.90;;;;;;1851532;78;20107;-73
2022/11/08 05:12:29;;;;;;;;;;;3.70;99.90;;;;;;1851463;78;20107;-71
2022/11/08 05:14:56;;;;;;;;;;;3.60;99.90;;;;;;1851509;78;20107;-71
2022/11/08 05:17:22;;;;;;;;;;;3.60;99.90;;;;;;1851533;78;20103;-72
2022/11/08 05:25:18;;;;;;;;;;;3.60;99.90;;;;;;1851540;77;20241;-72
2022/11/08 05:27:45;;;;;;;;;;;3.50;99.90;;;;;;1851571;78;20184;-70
2022/11/08 05:30:11;;;;;;;;;;;3.60;99.90;;;;;;1851480;78;20188;-71
2022/11/08 05:32:38;;;;;;;;;;;3.60;99.90;;;;;;1851506;78;20103;-71
2022/11/08 05:35:06;;;;;;;;;;;3.70;99.90;;;;;;1851530;78;20111;-70
2022/11/08 05:37:32;;;;;;;;;;;3.80;99.90;;;;;;1851528;77;20123;-70
2022/11/08 05:39:59;;;;;;;;;;;3.80;99.90;;;;;;1851415;78;20149;-72
2022/11/08 05:42:26;;;;;;;;;;;3.80;99.90;;;;;;1851669;78;20118;-72
2022/11/08 05:44:53;;;;;;;;;;;3.80;99.90;;;;;;1851651;78;20149;-72
2022/11/08 05:47:20;;;;;;;;;;;3.70;99.90;;;;;;1851944;78;20169;-71
2022/11/08 05:49:46;;;;;;;;;;;3.70;99.90;;;;;;1851429;78;20123;-72
2022/11/08 05:52:13;;;;;;;;;;;3.70;99.90;;;;;;1851402;78;20180;-72
2022/11/08 05:54:40;;;;;;;;;;;3.60;99.90;;;;;;1851435;78;20122;-72
2022/11/08 05:57:06;;;;;;;;;;;3.60;99.90;;;;;;1851499;78;20126;-72
2022/11/08 05:59:33;;;;;;;;;;;3.50;99.90;;;;;;1851455;78;20146;-71
2022/11/08 06:02:00;;;;;;;;;;;3.50;99.90;;;;;;1851546;78;20152;-72
2022/11/08 06:04:26;;;;;;;;;;;3.70;99.90;;;;;;1851459;78;20195;-73
2022/11/08 06:06:53;;;;;;;;;;;3.60;99.90;;;;;;1851532;78;20157;-72
2022/11/08 06:09:20;;;;;;;;;;;3.60;99.90;;;;;;1851494;77;20217;-72
2022/11/08 06:11:47;;;;;;;;;;;3.60;99.90;;;;;;1851496;78;20122;-73
2022/11/08 06:14:13;;;;;;;;;;;3.70;99.90;;;;;;1851486;78;20223;-72
2022/11/08 06:16:40;;;;;;;;;;;3.60;99.90;;;;;;1851432;78;20327;-72
2022/11/08 06:19:07;;;;;;;;;;;3.70;99.90;;;;;;1851303;77;20107;-72
2022/11/08 06:21:33;;;;;;;;;;;3.70;99.90;;;;;;1851548;77;20385;-73
2022/11/08 06:24:00;;;;;;;;;;;3.70;99.90;;;;;;1851452;78;20116;-73
2022/11/08 06:26:27;;;;;;;;;;;3.70;99.90;;;;;;1851230;78;20357;-71
2022/11/08 06:28:54;;;;;;;;;;;3.70;99.90;;;;;;1851421;78;20235;-71
2022/11/08 06:31:20;;;;;;;;;;;3.60;99.90;;;;;;1851422;77;20111;-71
2022/11/08 06:33:47;;;;;;;;;;;3.70;99.90;;;;;;1852515;77;20114;-73
2022/11/08 06:36:14;;;;;;;;;;;3.80;99.90;;;;;;1850570;77;20158;-73
2022/11/08 06:38:40;;;;;;;;;;;3.70;99.90;;;;;;1849157;77;20110;-73
2022/11/08 06:41:08;;;;;;;;;;;3.80;99.90;;;;;;1847476;77;20157;-73
2022/11/08 06:43:35;;;;;;;;;;;3.80;99.90;;;;;;1838790;78;20123;-73
2022/11/08 06:46:02;;;;;;;;;;;3.90;99.90;;;;;;1848643;77;20197;-73
2022/11/08 06:48:28;;;;;;;;;;;3.90;99.90;;;;;;1851279;75;20122;-75
2022/11/08 06:50:55;;;;;;;;;;;4.00;99.90;;;;;;1848020;76;20163;-71
2022/11/08 06:53:22;;;;;;;;;;;4.00;99.90;;;;;;1852802;77;20362;-73
2022/11/08 06:55:49;;;;;;;;;;;4.00;99.90;;;;;;1840053;77;20122;-71
2022/11/08 06:58:15;;;;;;;;;;;4.00;99.90;;;;;;1842900;76;20142;-72
2022/11/08 07:00:42;;;;;;;;;;;4.10;99.90;;;;;;1841987;76;20122;-73
2022/11/08 07:03:09;;;;;;;;;;;4.20;99.90;;;;;;1847093;77;20169;-72
2022/11/08 07:05:35;;;;;;;;;;;4.20;99.90;;;;;;1842529;78;20122;-74
2022/11/08 07:08:02;;;;;;;;;;;4.30;99.90;;;;;;1849647;76;20113;-74
2022/11/08 07:10:31;;;;;;;;;;;4.40;99.90;;;;;;1845634;77;20153;-74
2022/11/08 07:13:04;;;;;;;;;;;4.50;99.90;;;;;;1852658;76;20299;-75
2022/11/08 07:15:31;;;;;;;;;;;4.50;99.90;;;;;;1849988;75;20172;-74
2022/11/08 07:17:59;;;;;;;;;;;4.60;99.90;;;;;;1846034;77;20342;-73
2022/11/08 07:20:26;;;;;;;;;;;4.60;99.90;;;;;;1844438;77;20363;-75
2022/11/08 07:22:56;;;;;;;;;;;4.80;99.90;;;;;;1842554;77;20119;-73
2022/11/08 07:25:23;;;;;;;;;;;4.60;99.90;;;;;;1850852;77;20153;-73
2022/11/08 07:27:49;;;;;;;;;;;4.60;99.90;;;;;;1846300;77;20122;-72
2022/11/08 07:30:16;;;;;;;;;;;4.60;99.90;;;;;;1845597;76;20187;-72
2022/11/08 07:32:43;;;;;;;;;;;4.70;99.90;;;;;;1863082;77;20118;-73
2022/11/08 07:35:09;;;;;;;;;;;4.70;99.90;;;;;;1847715;75;20392;-74
2022/11/08 07:37:36;;;;;;;;;;;4.80;99.90;;;;;;1846297;76;20187;-74
2022/11/08 07:40:03;;;;;;;;;;;5.00;99.90;;;;;;1844383;77;20338;-74
2022/11/08 07:42:30;;;;;;;;;;;5.20;99.90;;;;;;1858416;75;20211;-73
2022/11/08 07:45:16;;;;;;;;;;;5.30;99.90;;;;;;1851522;78;20185;-74
2022/11/08 07:47:42;;;;;;;;;;;5.20;99.90;;;;;;1915742;75;20153;-74
2022/11/08 07:50:09;;;;;;;;;;;5.30;99.90;;;;;;1915666;75;20341;-74
2022/11/08 07:52:36;;;;;;;;;;;5.30;99.90;;;;;;1915697;75;20152;-73
2022/11/08 07:55:03;;;;;;;;;;;5.20;99.90;;;;;;1915659;75;20135;-73
2022/11/08 07:57:29;;;;;;;;;;;5.20;99.90;;;;;;1915868;75;20333;-77
2022/11/08 07:59:56;;;;;;;;;;;5.30;99.90;;;;;;1915746;75;20114;-73
2022/11/08 08:02:23;;;;;;;;;;;5.30;99.90;;;;;;1915706;75;20325;-74
2022/11/08 08:04:50;;;;;;;;;;;5.20;99.90;;;;;;1915671;75;20106;-74
2022/11/08 08:07:17;;;;;;;;;;;5.30;99.90;;;;;;1915757;75;20107;-75
2022/11/08 08:09:44;;;;;;;;;;;5.30;99.90;;;;;;1915670;75;20106;-74
2022/11/08 08:12:10;;;;;;;;;;;5.40;99.90;;;;;;1915775;75;20180;-74
2022/11/08 08:14:37;;;;;;;;;;;5.50;99.90;;;;;;1915951;74;20113;-75
2022/11/08 08:17:04;;;;;;;;;;;5.70;99.90;;;;;;1915662;75;20156;-74
2022/11/08 08:19:31;;;;;;;;;;;5.80;99.90;;;;;;1915658;74;20119;-74
2022/11/08 08:21:57;;;;;;;;;;;5.80;99.90;;;;;;1915813;75;20316;-73
2022/11/08 08:24:25;;;;;;;;;;;6.00;99.90;;;;;;1915639;75;20110;-74
2022/11/08 08:26:52;;;;;;;;;;;6.20;99.90;;;;;;1916071;75;20161;-73
2022/11/08 08:29:19;;;;;;;;;;;6.40;99.90;;;;;;1916184;74;20138;-73
2022/11/08 08:31:45;;;;;;;;;;;6.60;99.90;;;;;;1915973;75;20322;-73
2022/11/08 08:34:14;;;;;;;;;;;6.90;99.90;;;;;;1916044;75;20164;-73
2022/11/08 08:36:41;;;;;;;;;;;7.30;99.90;;;;;;1915634;75;20185;-72
2022/11/08 08:39:07;;;;;;;;;;;7.40;99.90;;;;;;1915833;75;20110;-73
2022/11/08 08:41:34;;;;;;;;;;;8.10;99.90;;;;;;1915690;75;20357;-73
2022/11/08 08:44:01;;;;;;;;;;;8.70;99.90;;;;;;1915697;74;20122;-72
2022/11/08 08:46:28;;;;;;;;;;;9.30;99.90;;;;;;1915651;74;20356;-73
2022/11/08 08:48:54;;;;;;;;;;;9.80;99.90;;;;;;1915630;75;20148;-73
2022/11/08 08:51:21;;;;;;;;;;;10.00;99.90;;;;;;1915814;75;20195;-73
2022/11/08 08:53:48;;;;;;;;;;;10.10;99.90;;;;;;1915633;75;20183;-74
2022/11/08 08:56:14;;;;;;;;;;;10.10;99.90;;;;;;1915676;74;20123;-73
2022/11/08 08:58:41;;;;;;;;;;;9.80;99.90;;;;;;1915783;75;20114;-73
2022/11/08 09:01:08;;;;;;;;;;;9.60;99.90;;;;;;1915888;75;20126;-73
2022/11/08 09:03:36;;;;;;;;;;;9.60;99.90;;;;;;1858573;72;20361;-72
2022/11/08 09:06:03;;;;;;;;;;;9.50;99.90;;;;;;1856336;77;20210;-72
2022/11/08 09:08:30;;;;;;;;;;;9.60;99.90;;;;;;1856933;77;20130;-72
2022/11/08 09:10:57;;;;;;;;;;;9.50;99.90;;;;;;1856953;77;20122;-72
2022/11/08 09:13:25;;;;;;;;;;;9.60;99.90;;;;;;1856975;77;20118;-73
2022/11/08 09:15:52;;;;;;;;;;;9.60;99.90;;;;;;1857072;77;20380;-72
2022/11/08 09:18:19;;;;;;;;;;;9.70;99.90;;;;;;1857029;77;20118;-73
2022/11/08 09:20:46;;;;;;;;;;;9.60;99.90;;;;;;1856926;77;20145;-72
2022/11/08 09:23:13;;;;;;;;;;;9.50;99.90;;;;;;1856969;77;20103;-72
2022/11/08 09:25:40;;;;;;;;;;;9.50;99.90;;;;;;1856821;77;20127;-73
2022/11/08 09:28:06;;;;;;;;;;;9.80;99.90;;;;;;1856989;77;20356;-72
2022/11/08 09:30:34;;;;;;;;;;;10.20;99.90;;;;;;1856956;77;20122;-75
2022/11/08 09:33:01;;;;;;;;;;;10.50;99.90;;;;;;1856913;77;20385;-73
2022/11/08 09:35:28;;;;;;;;;;;10.90;99.90;;;;;;1856901;77;20107;-73
2022/11/08 09:37:55;;;;;;;;;;;11.00;99.90;;;;;;1857084;77;20368;-73
2022/11/08 09:40:23;;;;;;;;;;;11.20;99.90;;;;;;1856900;77;20179;-73
2022/11/08 09:43:03;;;;;;;;;;;11.60;99.90;;;;;;1857213;77;20118;-73
2022/11/08 09:45:32;;;;;;;;;;;11.70;99.90;;;;;;1856995;77;20153;-73
2022/11/08 09:47:59;;;;;;;;;;;11.80;99.90;;;;;;1855780;77;20149;-72
2022/11/08 09:50:36;;;;;;;;;;;11.70;99.90;;;;;;1857016;77;20121;-72
2022/11/08 09:53:05;;;;;;;;;;;11.80;99.90;;;;;;1856924;77;20357;-72
2022/11/08 09:55:33;;;;;;;;;;;11.80;99.90;;;;;;1856792;76;20204;-72
2022/11/08 09:58:08;;;;;;;;;;;11.80;99.90;;;;;;1856277;77;20323;-72
2022/11/08 10:00:35;;;;;;;;;;;12.10;99.90;;;;;;1856959;77;20182;-72
2022/11/08 10:03:02;;;;;;;;;;;12.30;99.90;;;;;;1856911;77;20165;-73
2022/11/08 10:05:33;;;;;;;;;;;12.20;99.90;;;;;;1856851;77;20126;-73
2022/11/08 10:08:09;;;;;;;;;;;12.10;99.90;;;;;;1856926;76;20111;-72
2022/11/08 10:10:38;;;;;;;;;;;12.60;99.90;;;;;;1856929;77;20152;-73
2022/11/08 10:13:09;;;;;;;;;;;12.80;99.90;;;;;;1856817;77;20123;-73
2022/11/08 10:15:40;;;;;;;;;;;12.70;99.90;;;;;;1856647;77;20129;-72
2022/11/08 10:18:17;;;;;;;;;;;12.70;99.90;;;;;;1856746;77;20372;-72
2022/11/08 10:20:58;;;;;;;;;;;12.70;99.90;;;;;;1856732;77;20315;-72
2022/11/08 10:23:29;;;;;;;;;;;12.50;99.90;;;;;;1814705;77;20360;-72
2022/11/08 10:26:00;;;;;;;;;;;12.60;99.90;;;;;;1856771;77;20215;-72
2022/11/08 10:28:34;;;;;;;;;;;12.60;99.90;;;;;;1856902;77;20315;-72
2022/11/08 10:31:01;;;;;;;;;;;12.60;99.90;;;;;;1855454;76;20114;-72
2022/11/08 10:33:38;;;;;;;;;;;12.60;99.90;;;;;;1856807;77;20349;-71
2022/11/08 10:36:09;;;;;;;;;;;12.50;99.90;;;;;;1835485;77;20152;-77
2022/11/08 10:38:41;;;;;;;;;;;12.50;99.90;;;;;;1856778;77;20118;-71
2022/11/08 10:41:21;;;;;;;;;;;12.70;99.90;;;;;;1856456;77;20130;-72
2022/11/08 10:43:58;;;;;;;;;;;12.70;99.90;;;;;;1856736;77;20122;-72
2022/11/08 10:46:30;;;;;;;;;;;12.90;99.90;;;;;;1857294;77;20325;-71
2022/11/08 10:49:01;;;;;;;;;;;12.80;99.90;;;;;;1857384;77;20161;-72
2022/11/08 10:51:27;;;;;;;;;;;12.90;99.90;;;;;;1856878;77;20139;-71
2022/11/08 10:53:54;;;;;;;;;;;13.00;99.90;;;;;;1856837;77;20122;-71
2022/11/08 10:56:23;;;;;;;;;;;13.10;99.90;;;;;;1856928;77;20325;-72
2022/11/08 10:58:49;;;;;;;;;;;13.30;99.90;;;;;;1856979;76;20135;-71
2022/11/08 11:01:17;;;;;;;;;;;13.40;99.90;;;;;;1857016;77;20118;-72
2022/11/08 11:03:44;;;;;;;;;;;13.50;99.90;;;;;;1855178;77;20122;-71
2022/11/08 11:06:31;;;;;;;;;;;13.60;99.90;;;;;;1856976;77;20365;-71
2022/11/08 11:08:58;;;;;;;;;;;13.60;99.90;;;;;;1856953;77;20118;-72
2022/11/08 11:11:26;;;;;;;;;;;13.70;99.90;;;;;;1857063;77;20149;-72
2022/11/08 11:14:06;;;;;;;;;;;13.60;99.90;;;;;;1856986;77;20118;-73
2022/11/08 11:16:35;;;;;;;;;;;13.60;99.90;;;;;;1856897;77;20127;-72
2022/11/08 11:19:01;;;;;;;;;;;13.60;99.90;;;;;;1857008;77;20424;-73
2022/11/08 11:21:30;;;;;;;;;;;13.80;99.90;;;;;;1850652;77;20172;-71
2022/11/08 11:23:58;;;;;;;;;;;13.80;99.90;;;;;;1854911;77;20122;-72
2022/11/08 11:26:30;;;;;;;;;;;13.80;99.90;;;;;;1851523;77;20153;-74
2022/11/08 11:28:57;;;;;;;;;;;13.80;99.90;;;;;;1844146;77;20130;-74
2022/11/08 11:31:24;;;;;;;;;;;13.80;99.90;;;;;;1854023;77;20186;-73
2022/11/08 11:33:51;;;;;;;;;;;13.90;99.90;;;;;;1854414;77;20358;-73
2022/11/08 11:36:19;;;;;;;;;;;14.10;99.90;;;;;;1854217;77;20122;-73
2022/11/08 11:38:47;;;;;;;;;;;14.10;99.90;;;;;;1861523;77;20208;-73
2022/11/08 11:41:18;;;;;;;;;;;14.10;99.90;;;;;;1852933;77;20123;-72
2022/11/08 11:43:47;;;;;;;;;;;14.10;99.90;;;;;;1850026;77;20122;-72
2022/11/08 11:46:27;;;;;;;;;;;14.00;99.90;;;;;;1850247;77;20126;-72
2022/11/08 11:49:01;;;;;;;;;;;14.00;99.90;;;;;;1849869;76;20130;-72
2022/11/08 11:51:28;;;;;;;;;;;14.10;99.90;;;;;;1859277;77;20130;-74
2022/11/08 11:53:55;;;;;;;;;;;14.80;99.90;;;;;;1859549;77;20373;-73
2022/11/08 11:56:30;;;;;;;;;;;15.20;99.90;;;;;;1856465;77;20462;-79
2022/11/08 11:58:58;;;;;;;;;;;15.40;99.90;;;;;;1854462;76;20218;-72
2022/11/08 12:01:29;;;;;;;;;;;15.70;99.90;;;;;;1855720;76;20173;-72
2022/11/08 12:03:58;;;;;;;;;;;16.40;99.90;;;;;;1853730;77;20179;-72
2022/11/08 12:06:35;;;;;;;;;;;16.50;99.90;;;;;;1855217;77;20126;-72
2022/11/08 12:09:04;;;;;;;;;;;16.40;99.90;;;;;;1855253;76;20420;-71
2022/11/08 12:11:48;;;;;;;;;;;15.90;99.90;;;;;;1856627;76;20357;-71
2022/11/08 12:14:33;;;;;;;;;;;15.90;99.90;;;;;;1856636;77;20111;-70
2022/11/08 12:17:08;;;;;;;;;;;16.10;99.90;;;;;;1855410;77;20168;-71
2022/11/08 12:19:45;;;;;;;;;;;16.10;99.90;;;;;;1854009;77;20153;-70
2022/11/08 12:22:28;;;;;;;;;;;16.20;99.90;;;;;;1850159;76;20185;-71
2022/11/08 12:24:57;;;;;;;;;;;16.40;99.90;;;;;;1853099;76;20153;-70
2022/11/08 12:27:28;;;;;;;;;;;17.00;99.90;;;;;;1860475;77;20121;-72
2022/11/08 12:30:05;;;;;;;;;;;17.40;99.90;;;;;;1855178;76;20188;-70
2022/11/08 12:32:48;;;;;;;;;;;17.70;99.90;;;;;;1859851;76;20215;-71
2022/11/08 12:35:18;;;;;;;;;;;17.60;99.90;;;;;;1856958;77;20122;-70
2022/11/08 12:37:55;;;;;;;;;;;17.80;99.90;;;;;;1858240;77;20118;-71
2022/11/08 12:40:29;;;;;;;;;;;17.60;99.90;;;;;;1861751;76;20177;-70
2022/11/08 12:43:01;;;;;;;;;;;18.40;99.90;;;;;;1854570;77;20126;-70
2022/11/08 12:45:38;;;;;;;;;;;18.70;99.90;;;;;;1859064;77;20154;-68
2022/11/08 12:48:24;;;;;;;;;;;18.00;99.90;;;;;;1859118;76;20130;-69
2022/11/08 12:51:10;;;;;;;;;;;18.30;99.90;;;;;;1855732;77;20122;-69
2022/11/08 12:53:53;;;;;;;;;;;18.10;99.90;;;;;;1855717;77;20142;-70
2022/11/08 12:56:31;;;;;;;;;;;18.10;99.90;;;;;;1855608;77;20138;-69
2022/11/08 12:58:58;;;;;;;;;;;17.20;99.90;;;;;;1852230;77;20118;-70
2022/11/08 13:01:24;;;;;;;;;;;17.10;99.90;;;;;;1856955;77;20175;-70
2022/11/08 13:03:53;;;;;;;;;;;16.60;99.90;;;;;;1854793;76;20118;-69
2022/11/08 13:06:30;;;;;;;;;;;16.50;99.90;;;;;;1857056;77;20130;-70
2022/11/08 13:08:58;;;;;;;;;;;16.40;99.90;;;;;;1857251;77;20321;-69
2022/11/08 13:11:27;;;;;;;;;;;16.40;99.90;;;;;;1853093;77;20130;-69
2022/11/08 13:13:54;;;;;;;;;;;16.60;99.90;;;;;;1855516;77;20110;-69
2022/11/08 13:16:22;;;;;;;;;;;16.60;99.90;;;;;;1856856;77;20156;-69
2022/11/08 13:18:52;;;;;;;;;;;16.40;99.90;;;;;;1854222;77;20146;-69
2022/11/08 13:21:29;;;;;;;;;;;16.60;99.90;;;;;;1855253;77;20394;-71
2022/11/08 13:24:04;;;;;;;;;;;16.50;99.90;;;;;;1856785;77;20129;-70
2022/11/08 13:26:36;;;;;;;;;;;16.50;99.90;;;;;;1856723;76;20182;-70
2022/11/08 13:29:19;;;;;;;;;;;16.40;99.90;;;;;;1856876;76;20311;-70
2022/11/08 13:31:50;;;;;;;;;;;16.40;99.90;;;;;;1856810;77;20122;-70
2022/11/08 13:34:27;;;;;;;;;;;16.40;99.90;;;;;;1856860;77;20118;-71
2022/11/08 13:36:56;;;;;;;;;;;16.20;99.90;;;;;;1855739;77;20126;-71
2022/11/08 13:39:27;;;;;;;;;;;16.30;99.90;;;;;;1856471;76;20181;-70
2022/11/08 13:42:12;;;;;;;;;;;16.20;99.90;;;;;;1856568;77;20121;-70
2022/11/08 13:44:59;;;;;;;;;;;16.10;99.90;;;;;;1856814;77;20107;-69
2022/11/08 13:47:27;;;;;;;;;;;16.10;99.90;;;;;;1856872;77;20152;-69
2022/11/08 13:49:55;;;;;;;;;;;16.20;99.90;;;;;;1837911;77;20122;-69
2022/11/08 13:52:41;;;;;;;;;;;16.30;99.90;;;;;;1855852;77;20228;-70
2022/11/08 13:55:09;;;;;;;;;;;16.30;99.90;;;;;;1856864;76;20111;-69
2022/11/08 13:57:55;;;;;;;;;;;16.20;99.90;;;;;;1854375;77;20318;-70
2022/11/08 14:00:42;;;;;;;;;;;16.10;99.90;;;;;;1856878;77;20172;-71
2022/11/08 14:03:27;;;;;;;;;;;16.00;99.90;;;;;;1855889;77;20118;-69
2022/11/08 14:05:53;;;;;;;;;;;16.10;99.90;;;;;;1856861;77;20118;-71
2022/11/08 14:08:20;;;;;;;;;;;16.00;99.90;;;;;;1856895;77;20133;-70
2022/11/08 14:10:51;;;;;;;;;;;16.00;99.90;;;;;;1856933;77;20102;-70
2022/11/08 14:13:23;;;;;;;;;;;16.00;99.90;;;;;;1855991;77;20125;-70
2022/11/08 14:15:51;;;;;;;;;;;16.10;99.90;;;;;;1856809;77;20115;-71
2022/11/08 14:18:25;;;;;;;;;;;15.90;99.90;;;;;;1855658;76;20126;-69
2022/11/08 14:20:53;;;;;;;;;;;16.00;99.90;;;;;;1855817;77;20210;-72
2022/11/08 14:23:22;;;;;;;;;;;15.80;99.90;;;;;;1856834;77;20173;-69
2022/11/08 14:25:56;;;;;;;;;;;15.90;99.90;;;;;;1856903;77;20395;-70
2022/11/08 14:28:30;;;;;;;;;;;15.80;99.90;;;;;;1856844;77;20173;-69
2022/11/08 14:30:57;;;;;;;;;;;16.00;99.90;;;;;;1856932;77;20114;-71
2022/11/08 14:33:25;;;;;;;;;;;16.30;99.90;;;;;;1856897;77;20122;-70
2022/11/08 14:35:53;;;;;;;;;;;16.40;99.90;;;;;;1856931;77;20243;-71
2022/11/08 14:38:20;;;;;;;;;;;16.40;99.90;;;;;;1855488;77;20365;-70
2022/11/08 14:40:48;;;;;;;;;;;16.60;99.90;;;;;;1856817;77;20157;-70
2022/11/08 14:43:15;;;;;;;;;;;16.70;99.90;;;;;;1856890;77;20122;-71
2022/11/08 14:45:42;;;;;;;;;;;16.70;99.90;;;;;;1856764;77;20137;-69
2022/11/08 14:48:09;;;;;;;;;;;16.60;99.90;;;;;;1856828;77;20118;-70
2022/11/08 14:50:36;;;;;;;;;;;16.50;99.90;;;;;;1856850;77;20118;-71
2022/11/08 14:53:20;;;;;;;;;;;16.40;99.90;;;;;;1856840;77;20165;-69
2022/11/08 14:55:46;;;;;;;;;;;16.30;99.90;;;;;;1857158;76;20362;-69
2022/11/08 14:58:13;;;;;;;;;;;16.50;99.90;;;;;;1856846;77;20192;-68